Time;durP1;ratioP1;P1;durP2;ratioP2;P2;SDS_P1;SDS_P2;PMS_P1;PMS_P2;Temp;Humidity;BMP_temperature;BMP_pressure;BME280_temperature;BME280_humidity;BME280_pressure;Samples;Min_cycle;Max_cycle;Signal;HPM_P1;HPM_P2
2021/12/10 00:02:13;;;;;;;7.63;3.42;;;4.50;99.90;;;;;;10372060;28;84896;-49
2021/12/10 00:07:20;;;;;;;8.45;3.45;;;4.50;99.90;;;;;;10372409;28;84812;-52
2021/12/10 00:12:48;;;;;;;8.10;3.33;;;4.60;99.90;;;;;;10372612;28;84043;-49
2021/12/10 00:17:52;;;;;;;6.35;2.75;;;4.60;99.90;;;;;;10372279;28;84736;-51
2021/12/10 00:22:59;;;;;;;8.63;3.47;;;4.60;99.90;;;;;;10372099;28;84929;-51
2021/12/10 00:28:12;;;;;;;5.80;3.30;;;4.60;99.90;;;;;;10372481;28;84913;-51
2021/12/10 00:33:14;;;;;;;7.65;3.83;;;4.50;99.90;;;;;;10372319;28;85031;-50
2021/12/10 00:38:15;;;;;;;6.65;3.55;;;4.40;99.90;;;;;;10371177;28;84189;-51
2021/12/10 00:43:16;;;;;;;8.00;3.80;;;4.30;99.90;;;;;;10371826;28;84743;-54
2021/12/10 00:48:17;;;;;;;7.25;3.78;;;4.30;99.90;;;;;;10371485;28;84901;-51
2021/12/10 00:53:18;;;;;;;8.52;3.20;;;4.20;99.90;;;;;;10371635;28;84163;-50
2021/12/10 00:58:19;;;;;;;4.88;2.33;;;4.20;99.90;;;;;;10370768;28;84092;-54
2021/12/10 01:03:26;;;;;;;7.05;2.95;;;4.30;99.90;;;;;;10371406;28;84046;-50
2021/12/10 01:08:28;;;;;;;5.38;2.55;;;4.30;99.90;;;;;;10395157;22;84911;-46
2021/12/10 01:13:33;;;;;;;4.03;2.63;;;4.30;99.90;;;;;;10370281;28;84025;-46
2021/12/10 01:23:58;;;;;;;3.80;2.95;;;4.30;99.90;;;;;;10370312;28;84856;-44
2021/12/10 01:29:01;;;;;;;4.63;2.97;;;4.20;99.90;;;;;;10369334;28;84178;-47
2021/12/10 01:34:02;;;;;;;4.38;2.75;;;4.10;99.90;;;;;;10369914;28;84979;-45
2021/12/10 01:39:09;;;;;;;4.68;2.95;;;4.00;99.90;;;;;;10367739;28;84221;-44
2021/12/10 01:44:16;;;;;;;5.45;2.95;;;3.80;99.90;;;;;;10369388;28;83983;-43
2021/12/10 01:49:16;;;;;;;4.43;2.88;;;3.80;99.90;;;;;;10368752;28;84936;-44
2021/12/10 01:54:31;;;;;;;4.50;2.22;;;3.70;99.90;;;;;;10367934;28;85062;-45
2021/12/10 01:59:35;;;;;;;7.63;3.08;;;3.70;99.90;;;;;;10368183;28;84765;-43
2021/12/10 02:04:39;;;;;;;3.92;2.17;;;3.60;99.90;;;;;;10368625;28;84926;-44
2021/12/10 02:09:40;;;;;;;6.13;2.53;;;3.50;99.90;;;;;;10367658;28;84040;-47
2021/12/10 02:14:41;;;;;;;4.43;2.30;;;3.40;99.90;;;;;;10350824;28;85805;-43
2021/12/10 02:19:42;;;;;;;11.60;3.08;;;3.30;99.90;;;;;;10368146;28;85050;-43
2021/12/10 02:24:42;;;;;;;5.38;2.72;;;3.30;99.90;;;;;;10368388;28;84064;-45
2021/12/10 02:29:43;;;;;;;5.60;2.53;;;3.20;99.90;;;;;;10365801;28;85912;-43
2021/12/10 02:34:46;;;;;;;5.13;2.83;;;3.10;99.90;;;;;;10367836;28;84867;-43
2021/12/10 02:39:47;;;;;;;8.52;2.50;;;3.20;99.90;;;;;;10367667;28;84130;-48
2021/12/10 02:44:47;;;;;;;5.20;2.35;;;3.40;99.90;;;;;;10367610;28;84875;-44
2021/12/10 02:49:48;;;;;;;4.70;2.67;;;3.50;99.90;;;;;;10367315;28;83983;-44
2021/12/10 02:54:49;;;;;;;6.93;3.10;;;3.50;99.90;;;;;;10367924;28;83989;-46
2021/12/10 02:59:50;;;;;;;5.55;2.78;;;3.50;99.90;;;;;;10367443;28;84810;-44
2021/12/10 03:04:51;;;;;;;5.70;2.40;;;3.60;99.90;;;;;;10365802;28;85110;-45
2021/12/10 03:09:53;;;;;;;6.78;2.60;;;3.60;99.90;;;;;;10366232;28;84931;-43
2021/12/10 03:14:56;;;;;;;6.47;2.47;;;3.40;99.90;;;;;;10365173;28;86907;-43
2021/12/10 03:19:57;;;;;;;6.10;3.20;;;3.30;99.90;;;;;;10366114;28;84085;-44
2021/12/10 03:24:58;;;;;;;6.45;2.40;;;3.20;99.90;;;;;;10362572;28;86028;-43
2021/12/10 03:29:59;;;;;;;3.83;2.25;;;3.40;99.90;;;;;;10364374;28;87066;-44
2021/12/10 03:35:04;;;;;;;4.97;2.97;;;3.50;99.90;;;;;;10366329;28;84171;-46
2021/12/10 03:40:07;;;;;;;5.70;2.80;;;3.40;99.90;;;;;;10370021;28;84147;-44
2021/12/10 03:45:10;;;;;;;6.07;2.53;;;3.30;99.90;;;;;;10373424;28;84243;-46
2021/12/10 03:50:22;;;;;;;6.20;2.75;;;3.40;99.90;;;;;;10372821;28;85091;-46
2021/12/10 03:55:24;;;;;;;4.25;2.45;;;3.30;99.90;;;;;;10373057;28;84929;-43
2021/12/10 04:00:29;;;;;;;3.95;2.60;;;3.30;99.90;;;;;;10370940;28;86962;-47
2021/12/10 04:05:31;;;;;;;3.72;1.88;;;3.30;99.90;;;;;;10371830;28;84093;-43
2021/12/10 04:10:32;;;;;;;5.20;2.25;;;3.40;99.90;;;;;;10371831;28;84913;-46
2021/12/10 04:15:35;;;;;;;4.30;2.60;;;3.50;99.90;;;;;;10371161;28;84706;-42
2021/12/10 04:20:37;;;;;;;5.47;3.00;;;3.50;99.90;;;;;;10371682;28;84109;-46
2021/12/10 04:25:40;;;;;;;6.63;2.13;;;3.50;99.90;;;;;;10371720;28;84028;-43
2021/12/10 04:30:45;;;;;;;2.60;2.13;;;3.40;99.90;;;;;;10371504;28;84234;-46
2021/12/10 04:35:47;;;;;;;5.45;2.85;;;3.40;99.90;;;;;;10372386;28;84748;-44
2021/12/10 04:40:49;;;;;;;5.53;2.72;;;3.30;99.90;;;;;;10370873;28;85481;-44
2021/12/10 04:45:56;;;;;;;9.52;3.65;;;3.30;99.90;;;;;;10369633;28;84776;-44
2021/12/10 04:50:57;;;;;;;3.40;2.30;;;3.30;99.90;;;;;;10370601;28;84928;-43
2021/12/10 04:55:57;;;;;;;4.88;2.55;;;3.30;99.90;;;;;;10370789;28;84341;-42
2021/12/10 05:00:59;;;;;;;6.63;2.78;;;3.20;99.90;;;;;;10369367;28;84044;-46
2021/12/10 05:06:03;;;;;;;4.85;2.15;;;3.20;99.90;;;;;;10369855;28;87059;-44
2021/12/10 05:11:08;;;;;;;4.70;2.80;;;3.20;99.90;;;;;;10364170;28;84186;-44
2021/12/10 05:16:09;;;;;;;4.43;2.17;;;3.20;99.90;;;;;;10349670;28;87587;-42
2021/12/10 05:21:12;;;;;;;5.90;2.70;;;3.20;99.90;;;;;;10348855;28;85038;-44
2021/12/10 05:26:12;;;;;;;5.18;3.05;;;3.10;99.90;;;;;;10347719;28;84157;-44
2021/12/10 05:31:14;;;;;;;3.78;2.45;;;3.10;99.90;;;;;;10347780;28;84085;-43
2021/12/10 05:36:15;;;;;;;7.10;2.85;;;3.00;99.90;;;;;;10346238;28;86080;-44
2021/12/10 05:41:16;;;;;;;7.25;2.75;;;3.00;99.90;;;;;;10346513;28;84794;-46
2021/12/10 05:46:17;;;;;;;5.72;2.15;;;2.90;99.90;;;;;;10346132;28;84350;-44
2021/12/10 05:51:20;;;;;;;7.43;2.65;;;2.90;99.90;;;;;;10346767;28;84960;-45
2021/12/10 05:56:20;;;;;;;4.05;2.28;;;2.80;99.90;;;;;;10347450;28;84018;-43
2021/12/10 06:01:22;;;;;;;5.03;2.20;;;2.90;99.90;;;;;;10348157;28;84229;-51
2021/12/10 06:06:26;;;;;;;5.57;2.33;;;2.90;99.90;;;;;;10348221;28;84791;-45
2021/12/10 06:11:28;;;;;;;3.90;1.98;;;2.90;99.90;;;;;;10326904;28;85031;-45
2021/12/10 06:16:29;;;;;;;2.78;1.98;;;2.90;99.90;;;;;;10347602;28;84996;-44
2021/12/10 06:21:32;;;;;;;4.82;2.00;;;2.90;99.90;;;;;;10345171;28;84945;-46
2021/12/10 06:26:34;;;;;;;6.90;2.78;;;2.80;99.90;;;;;;10347370;28;86039;-44
2021/12/10 06:31:37;;;;;;;4.95;2.33;;;2.80;99.90;;;;;;10346569;28;85329;-49
2021/12/10 06:36:37;;;;;;;5.80;2.65;;;2.80;99.90;;;;;;10344195;28;85838;-46
2021/12/10 06:41:38;;;;;;;3.63;2.47;;;2.80;99.90;;;;;;10353100;28;84976;-50
2021/12/10 06:46:39;;;;;;;6.13;2.72;;;2.80;99.90;;;;;;10367705;28;84124;-47
2021/12/10 06:51:40;;;;;;;5.80;2.20;;;2.70;99.90;;;;;;10366228;28;86166;-50
2021/12/10 06:56:41;;;;;;;4.07;2.10;;;2.70;99.90;;;;;;10352434;28;84943;-48
2021/12/10 07:01:43;;;;;;;3.90;2.28;;;2.60;99.90;;;;;;10353720;28;84906;-47
2021/12/10 07:06:46;;;;;;;5.68;1.95;;;2.60;99.90;;;;;;10362542;28;84420;-46
2021/12/10 07:11:48;;;;;;;4.18;2.05;;;2.60;99.90;;;;;;10387136;22;85175;-46
2021/12/10 07:16:50;;;;;;;5.75;2.30;;;2.60;99.90;;;;;;10392486;28;86385;-50
2021/12/10 07:21:50;;;;;;;4.63;2.15;;;2.60;99.90;;;;;;10375755;28;84931;-51
2021/12/10 07:26:51;;;;;;;6.80;2.50;;;2.60;99.90;;;;;;10372897;28;84300;-51
2021/12/10 07:31:52;;;;;;;6.68;2.05;;;2.60;99.90;;;;;;10351434;28;84176;-55
2021/12/10 07:36:53;;;;;;;6.15;2.40;;;2.60;99.90;;;;;;10337444;28;84215;-51
2021/12/10 07:41:54;;;;;;;7.50;2.13;;;2.50;99.90;;;;;;10348141;28;84934;-50
2021/12/10 07:46:55;;;;;;;4.45;1.50;;;2.50;99.90;;;;;;10365550;28;85841;-50
2021/12/10 07:51:58;;;;;;;2.47;1.52;;;2.50;99.90;;;;;;10373047;28;84906;-48
2021/12/10 07:56:58;;;;;;;2.80;1.80;;;2.50;99.90;;;;;;10371902;28;84145;-56
2021/12/10 08:01:59;;;;;;;3.13;1.55;;;2.60;99.90;;;;;;10374103;28;84914;-55
2021/12/10 08:07:00;;;;;;;2.92;2.25;;;2.60;99.90;;;;;;10361405;28;87713;-48
2021/12/10 08:12:00;;;;;;;2.90;1.63;;;2.60;99.90;;;;;;10350690;28;84255;-49
2021/12/10 08:17:02;;;;;;;4.18;1.92;;;2.70;99.90;;;;;;10353212;28;84863;-49
2021/12/10 08:22:03;;;;;;;4.50;1.80;;;2.80;99.90;;;;;;10330580;28;84884;-50
2021/12/10 08:27:04;;;;;;;5.22;1.48;;;2.90;99.90;;;;;;10330865;28;84966;-49
2021/12/10 08:32:05;;;;;;;3.40;1.52;;;2.90;99.90;;;;;;10330769;28;83934;-51
2021/12/10 08:37:06;;;;;;;3.83;1.95;;;3.20;99.90;;;;;;10331015;28;84856;-51
2021/12/10 08:42:06;;;;;;;2.70;1.48;;;3.30;99.90;;;;;;10330943;28;84104;-48
2021/12/10 08:47:07;;;;;;;3.50;1.58;;;3.30;99.90;;;;;;10330253;28;84051;-51
2021/12/10 08:52:10;;;;;;;5.05;1.75;;;3.60;99.90;;;;;;10330555;28;85020;-52
2021/12/10 08:57:11;;;;;;;2.42;1.42;;;3.90;99.90;;;;;;10330032;28;84154;-50
2021/12/10 09:02:14;;;;;;;6.00;2.22;;;4.20;99.90;;;;;;10330351;28;84465;-50
2021/12/10 09:07:18;;;;;;;2.97;1.83;;;4.40;99.90;;;;;;10329959;28;84863;-49
2021/12/10 09:12:23;;;;;;;6.07;1.70;;;4.80;99.90;;;;;;10329135;28;84987;-49
2021/12/10 09:17:27;;;;;;;3.97;1.90;;;5.10;99.90;;;;;;10330339;28;85028;-47
2021/12/10 09:22:29;;;;;;;2.80;1.70;;;5.40;99.90;;;;;;10328699;28;84013;-51
2021/12/10 09:27:29;;;;;;;3.55;1.73;;;5.70;99.90;;;;;;10329839;28;85094;-49
2021/12/10 09:32:30;;;;;;;3.63;1.92;;;5.90;99.90;;;;;;10328133;28;84139;-52
2021/12/10 09:37:31;;;;;;;4.25;1.88;;;6.20;99.90;;;;;;10328407;28;84230;-52
2021/12/10 09:42:32;;;;;;;3.08;1.70;;;6.80;99.90;;;;;;10329769;28;84097;-48
2021/12/10 09:47:33;;;;;;;4.68;2.05;;;7.60;99.90;;;;;;10329159;28;85184;-50
2021/12/10 09:52:35;;;;;;;5.50;1.90;;;8.00;99.90;;;;;;10327663;28;85027;-48
2021/12/10 09:57:36;;;;;;;5.78;1.73;;;8.00;99.90;;;;;;10328542;28;85036;-47
2021/12/10 10:02:40;;;;;;;5.90;1.95;;;8.00;99.90;;;;;;10329522;28;83960;-49
2021/12/10 10:07:42;;;;;;;3.80;2.22;;;8.00;99.90;;;;;;10328323;28;84251;-48
2021/12/10 10:12:46;;;;;;;7.50;1.88;;;7.50;99.90;;;;;;10327767;28;84823;-50
2021/12/10 10:17:48;;;;;;;2.72;1.60;;;6.80;99.90;;;;;;10328754;28;84245;-52
2021/12/10 10:22:49;;;;;;;10.05;2.70;;;6.40;99.90;;;;;;10328886;28;84853;-51
2021/12/10 10:27:50;;;;;;;4.25;1.83;;;6.10;99.90;;;;;;10328769;28;84192;-49
2021/12/10 10:32:53;;;;;;;4.50;1.63;;;6.00;99.90;;;;;;10327620;28;84928;-52
2021/12/10 10:37:57;;;;;;;4.47;2.15;;;6.00;99.90;;;;;;10327248;28;84082;-48
2021/12/10 10:42:58;;;;;;;7.35;2.30;;;5.80;99.90;;;;;;10327424;28;83983;-49
2021/12/10 10:48:00;;;;;;;4.53;2.33;;;5.80;99.90;;;;;;10330992;28;84850;-50
2021/12/10 10:53:11;;;;;;;7.72;1.63;;;5.80;99.90;;;;;;10334664;28;85390;-49
2021/12/10 10:58:14;;;;;;;3.10;1.67;;;5.80;99.90;;;;;;10334639;28;84146;-48
2021/12/10 11:03:22;;;;;;;5.63;2.00;;;5.70;99.90;;;;;;10333687;28;85119;-50
2021/12/10 11:08:34;;;;;;;5.22;1.88;;;5.60;99.90;;;;;;10333595;28;84033;-49
2021/12/10 11:13:36;;;;;;;4.15;1.75;;;5.60;99.90;;;;;;10333815;28;84976;-50
2021/12/10 11:18:53;;;;;;;4.30;1.40;;;5.70;99.90;;;;;;10332925;28;84108;-50
2021/12/10 11:24:19;;;;;;;5.10;1.70;;;5.80;99.90;;;;;;10332275;28;84215;-48
2021/12/10 11:29:47;;;;;;;2.78;1.83;;;5.70;99.90;;;;;;10333261;28;84598;-50
2021/12/10 11:35:08;;;;;;;7.95;1.60;;;5.70;99.90;;;;;;10333168;28;84018;-49
2021/12/10 11:40:31;;;;;;;1.83;1.30;;;5.80;99.90;;;;;;10332871;28;84001;-51
2021/12/10 11:45:50;;;;;;;2.60;1.00;;;5.80;99.90;;;;;;10333955;28;84982;-51
2021/12/10 11:51:25;;;;;;;2.15;1.13;;;6.00;99.90;;;;;;10331392;28;86858;-49
2021/12/10 11:56:33;;;;;;;3.60;1.30;;;6.00;99.90;;;;;;10331338;28;84179;-48
2021/12/10 12:01:53;;;;;;;1.98;1.10;;;6.00;99.90;;;;;;10330835;28;84833;-49
2021/12/10 12:07:24;;;;;;;3.40;1.33;;;6.00;99.90;;;;;;10331807;28;84770;-49
2021/12/10 12:12:29;;;;;;;1.75;1.00;;;6.00;99.90;;;;;;10331113;28;84861;-51
2021/12/10 12:17:35;;;;;;;2.58;1.27;;;6.00;99.90;;;;;;10330405;28;86089;-49
2021/12/10 12:28:07;;;;;;;0.88;0.75;;;6.00;99.90;;;;;;10330859;28;84798;-53
2021/12/10 12:33:10;;;;;;;2.03;0.82;;;6.00;99.90;;;;;;10331063;28;84739;-50
2021/12/10 12:38:21;;;;;;;1.77;0.68;;;6.00;99.90;;;;;;10330334;28;84098;-49
2021/12/10 12:43:22;;;;;;;1.40;1.00;;;6.10;99.90;;;;;;10369087;28;84719;-50
2021/12/10 12:48:22;;;;;;;1.40;0.95;;;6.10;99.90;;;;;;10346484;28;84975;-50
2021/12/10 12:53:29;;;;;;;5.25;0.93;;;6.10;99.90;;;;;;10330629;28;84239;-48
2021/12/10 12:58:38;;;;;;;3.92;0.77;;;6.30;99.90;;;;;;10371382;28;84392;-50
2021/12/10 13:03:51;;;;;;;2.25;0.80;;;6.30;99.90;;;;;;10366678;28;86004;-49
2021/12/10 13:09:00;;;;;;;2.03;1.10;;;6.40;99.90;;;;;;10376425;28;84906;-54
2021/12/10 13:14:15;;;;;;;2.15;1.00;;;6.20;99.90;;;;;;10367005;28;84275;-57
2021/12/10 13:19:21;;;;;;;2.70;0.77;;;6.30;99.90;;;;;;10354867;28;84902;-50
2021/12/10 13:24:22;;;;;;;0.82;0.60;;;6.20;99.90;;;;;;10361919;28;84114;-49
2021/12/10 13:29:22;;;;;;;2.38;0.63;;;6.10;99.90;;;;;;10377428;28;84258;-51
2021/12/10 13:34:25;;;;;;;2.70;0.93;;;6.10;99.90;;;;;;10398729;22;85891;-48
2021/12/10 13:39:26;;;;;;;3.50;0.70;;;6.10;99.90;;;;;;10367394;28;86985;-51
2021/12/10 13:50:10;;;;;;;2.65;1.00;;;6.10;99.90;;;;;;10370596;28;84936;-49
2021/12/10 13:55:25;;;;;;;1.92;0.73;;;6.10;99.90;;;;;;10325139;28;84203;-47
2021/12/10 14:00:27;;;;;;;8.25;1.13;;;6.00;99.90;;;;;;10360615;28;85878;-46
2021/12/10 14:05:36;;;;;;;7.20;1.88;;;6.00;99.90;;;;;;10368888;28;84972;-46
2021/12/10 14:10:41;;;;;;;1.48;0.80;;;6.00;99.90;;;;;;10368995;28;84163;-51
2021/12/10 14:16:00;;;;;;;2.47;1.10;;;5.90;99.90;;;;;;10369098;28;85019;-47
2021/12/10 14:21:06;;;;;;;4.72;0.90;;;5.80;99.90;;;;;;10367971;28;84775;-47
2021/12/10 14:26:17;;;;;;;1.73;0.77;;;5.80;99.90;;;;;;10368692;28;85013;-42
2021/12/10 14:31:22;;;;;;;4.32;0.70;;;5.70;99.90;;;;;;10369151;28;84905;-45
2021/12/10 14:36:26;;;;;;;2.50;1.13;;;5.60;99.90;;;;;;10366689;28;84427;-48
2021/12/10 14:41:48;;;;;;;4.18;1.08;;;5.60;99.90;;;;;;10368081;28;84779;-47
2021/12/10 14:46:57;;;;;;;2.15;1.00;;;5.50;99.90;;;;;;10367150;28;84827;-44
2021/12/10 14:52:10;;;;;;;2.55;0.93;;;5.40;99.90;;;;;;10366339;28;86106;-46
2021/12/10 14:57:12;;;;;;;1.60;0.70;;;5.40;99.90;;;;;;10365747;28;86173;-45
2021/12/10 15:02:26;;;;;;;6.95;0.90;;;5.20;99.90;;;;;;10366064;28;84932;-46
2021/12/10 15:07:31;;;;;;;2.00;1.10;;;5.10;99.90;;;;;;10366866;28;85015;-45
2021/12/10 15:12:57;;;;;;;1.15;0.50;;;5.00;99.90;;;;;;10367431;28;84145;-47
2021/12/10 15:17:57;;;;;;;1.88;0.70;;;5.00;99.90;;;;;;10366946;28;84961;-46
2021/12/10 15:22:59;;;;;;;1.67;0.88;;;4.90;99.90;;;;;;10366812;28;85301;-46
2021/12/10 15:28:02;;;;;;;2.85;0.60;;;4.80;99.90;;;;;;10367243;28;84091;-46
2021/12/10 15:33:08;;;;;;;5.07;0.95;;;4.70;99.90;;;;;;10368512;28;84904;-50
2021/12/10 15:38:22;;;;;;;2.83;1.13;;;4.60;99.90;;;;;;10375151;28;84335;-45
2021/12/10 15:43:35;;;;;;;2.65;1.00;;;4.50;99.90;;;;;;10355638;28;86092;-47
2021/12/10 15:48:38;;;;;;;3.50;0.88;;;4.50;99.90;;;;;;10372233;28;85086;-46
2021/12/10 15:53:43;;;;;;;1.55;0.80;;;4.40;99.90;;;;;;10371259;28;84214;-51
2021/12/10 15:58:44;;;;;;;3.17;1.88;;;4.30;99.90;;;;;;10372794;28;85049;-46
2021/12/10 16:04:01;;;;;;;5.85;1.20;;;4.20;99.90;;;;;;10373445;28;84234;-48
2021/12/10 16:09:08;;;;;;;4.75;1.10;;;4.10;99.90;;;;;;10372473;28;85221;-46
2021/12/10 16:14:09;;;;;;;2.50;1.30;;;4.10;99.90;;;;;;10338406;28;87428;-46
2021/12/10 16:19:16;;;;;;;2.25;1.25;;;4.00;99.90;;;;;;10372669;28;84721;-49
2021/12/10 16:24:25;;;;;;;2.67;1.20;;;3.90;99.90;;;;;;10338061;28;84830;-46
2021/12/10 16:29:29;;;;;;;4.22;1.63;;;3.90;99.90;;;;;;10370396;28;84917;-48
2021/12/10 16:34:31;;;;;;;2.00;1.08;;;3.90;99.90;;;;;;10371765;28;84068;-51
2021/12/10 16:39:37;;;;;;;5.18;1.27;;;3.80;99.90;;;;;;10370822;28;85947;-48
2021/12/10 16:44:40;;;;;;;2.25;1.50;;;3.70;99.90;;;;;;10371111;28;84773;-45
2021/12/10 16:49:42;;;;;;;8.38;2.20;;;3.70;99.90;;;;;;10353689;28;84241;-47
2021/12/10 16:54:43;;;;;;;3.70;1.75;;;3.70;99.90;;;;;;10370301;28;86957;-47
2021/12/10 16:59:46;;;;;;;4.05;2.10;;;3.60;99.90;;;;;;10370863;28;84885;-46
2021/12/10 17:04:52;;;;;;;3.60;1.98;;;3.60;99.90;;;;;;10370781;28;84135;-46
2021/12/10 17:10:16;;;;;;;3.60;1.83;;;3.50;99.90;;;;;;10370466;28;84978;-45
2021/12/10 17:15:24;;;;;;;3.00;2.10;;;3.50;99.90;;;;;;10365610;28;84179;-46
2021/12/10 17:20:30;;;;;;;5.50;1.85;;;3.50;99.90;;;;;;10368761;28;85338;-50
2021/12/10 17:25:35;;;;;;;5.10;2.50;;;3.40;99.90;;;;;;10368369;28;84166;-49
2021/12/10 17:30:44;;;;;;;5.20;2.47;;;3.40;99.90;;;;;;10368619;28;87410;-45
2021/12/10 17:35:49;;;;;;;8.02;3.25;;;3.30;99.90;;;;;;10369371;28;84923;-45
2021/12/10 17:41:04;;;;;;;6.45;2.05;;;3.30;99.90;;;;;;10370230;28;84020;-44
2021/12/10 17:46:10;;;;;;;4.57;2.35;;;3.30;99.90;;;;;;10369687;28;84026;-47
2021/12/10 17:51:18;;;;;;;3.38;1.90;;;3.30;99.90;;;;;;10351869;28;85987;-43
2021/12/10 17:56:21;;;;;;;2.38;1.55;;;3.20;99.90;;;;;;10367675;28;84192;-45
2021/12/10 18:01:29;;;;;;;3.95;1.85;;;3.20;99.90;;;;;;10368062;28;84767;-49
2021/12/10 18:06:37;;;;;;;3.42;1.63;;;3.10;99.90;;;;;;10367828;28;84996;-48
2021/12/10 18:11:38;;;;;;;3.58;2.10;;;3.10;99.90;;;;;;10369013;28;85001;-51
2021/12/10 18:16:41;;;;;;;5.40;2.13;;;3.20;99.90;;;;;;10369197;28;85073;-45
2021/12/10 18:21:45;;;;;;;4.35;2.60;;;3.10;99.90;;;;;;10368968;28;84899;-48
2021/12/10 18:26:51;;;;;;;7.18;2.67;;;3.10;99.90;;;;;;10350082;28;86077;-49
2021/12/10 18:31:56;;;;;;;5.20;2.63;;;3.10;99.90;;;;;;10368561;28;84157;-47
2021/12/10 18:36:59;;;;;;;7.57;3.20;;;3.00;99.90;;;;;;10369378;28;84028;-47
2021/12/10 18:42:14;;;;;;;3.70;2.83;;;3.00;99.90;;;;;;10366811;28;86978;-46
2021/12/10 18:47:16;;;;;;;9.68;3.55;;;2.90;99.90;;;;;;10372114;28;84015;-54
2021/12/10 18:52:23;;;;;;;7.60;3.78;;;2.90;99.90;;;;;;10370727;28;84141;-48
2021/12/10 18:57:31;;;;;;;9.30;4.18;;;2.80;99.90;;;;;;10368646;28;84033;-46
2021/12/10 19:02:36;;;;;;;7.32;4.10;;;2.80;99.90;;;;;;10366576;28;86270;-52
2021/12/10 19:07:43;;;;;;;7.13;4.60;;;2.80;99.90;;;;;;10370549;28;84231;-46
2021/12/10 19:12:54;;;;;;;10.85;5.40;;;2.80;99.90;;;;;;10375000;28;84015;-46
2021/12/10 19:18:04;;;;;;;8.40;4.13;;;2.70;99.90;;;;;;10374815;28;85064;-47
2021/12/10 19:23:10;;;;;;;9.82;4.70;;;2.70;99.90;;;;;;10374721;28;84241;-46
2021/12/10 19:28:21;;;;;;;12.00;5.82;;;2.60;99.90;;;;;;10374835;28;84226;-47
2021/12/10 19:33:30;;;;;;;10.13;4.72;;;2.60;99.90;;;;;;10390259;22;84016;-47
2021/12/10 19:38:37;;;;;;;10.43;4.03;;;2.60;99.90;;;;;;10374325;28;84170;-45
2021/12/10 19:43:41;;;;;;;5.63;3.72;;;2.50;99.90;;;;;;10374454;28;84157;-44
2021/12/10 19:48:52;;;;;;;7.30;4.45;;;2.50;99.90;;;;;;10373070;28;84975;-46
2021/12/10 19:53:57;;;;;;;9.25;4.07;;;2.50;99.90;;;;;;10373219;28;84715;-47
2021/12/10 19:59:04;;;;;;;5.95;3.97;;;2.40;99.90;;;;;;10372709;28;84183;-46
2021/12/10 20:04:05;;;;;;;7.10;3.75;;;2.40;99.90;;;;;;10370807;28;85022;-44
2021/12/10 20:09:08;;;;;;;5.95;2.97;;;2.50;99.90;;;;;;10372148;28;84218;-51
2021/12/10 20:14:38;;;;;;;5.80;3.28;;;2.40;99.90;;;;;;10370946;28;85653;-45
2021/12/10 20:19:47;;;;;;;7.40;3.50;;;2.40;99.90;;;;;;10365816;28;85376;-51
2021/12/10 20:25:07;;;;;;;7.88;3.65;;;2.30;99.90;;;;;;10372991;28;84986;-47
2021/12/10 20:30:19;;;;;;;8.32;3.65;;;2.20;99.90;;;;;;10370736;28;85069;-46
2021/12/10 20:35:25;;;;;;;5.95;3.38;;;2.10;99.90;;;;;;10369861;28;86908;-47
2021/12/10 20:40:37;;;;;;;10.70;3.70;;;2.10;99.90;;;;;;10372579;28;85441;-47
2021/12/10 20:45:46;;;;;;;4.70;2.97;;;2.00;99.90;;;;;;10370828;28;85967;-45
2021/12/10 20:50:54;;;;;;;6.18;3.70;;;2.00;99.90;;;;;;10370187;28;84973;-45
2021/12/10 20:56:05;;;;;;;3.65;3.13;;;2.00;99.90;;;;;;10369768;28;86062;-45
2021/12/10 21:01:06;;;;;;;7.15;2.97;;;2.00;99.90;;;;;;10371810;28;86060;-45
2021/12/10 21:06:10;;;;;;;5.47;3.67;;;2.00;99.90;;;;;;10370437;28;84978;-46
2021/12/10 21:11:33;;;;;;;5.18;3.30;;;1.90;99.90;;;;;;10370851;28;84962;-44
2021/12/10 21:16:39;;;;;;;7.18;4.22;;;1.90;99.90;;;;;;10370127;28;84174;-45
2021/12/10 21:21:45;;;;;;;9.75;3.40;;;1.80;99.90;;;;;;10369820;28;84781;-45
2021/12/10 21:26:59;;;;;;;8.93;3.70;;;1.80;99.90;;;;;;10370309;28;84948;-44
2021/12/10 21:32:17;;;;;;;7.85;4.00;;;1.70;99.90;;;;;;10366407;28;85965;-49
2021/12/10 21:42:32;;;;;;;12.48;4.88;;;1.70;99.90;;;;;;10368285;28;86129;-46
2021/12/10 21:47:36;;;;;;;8.23;4.78;;;1.70;99.90;;;;;;10369959;28;84973;-46
2021/12/10 21:52:42;;;;;;;11.45;3.63;;;1.60;99.90;;;;;;10368273;28;85138;-50
2021/12/10 21:57:46;;;;;;;9.18;4.85;;;1.60;99.90;;;;;;10369973;28;84051;-46
2021/12/10 22:02:53;;;;;;;8.25;4.93;;;1.60;99.90;;;;;;10369390;28;84196;-45
2021/12/10 22:08:21;;;;;;;10.45;5.03;;;1.60;99.90;;;;;;10350324;28;87097;-45
2021/12/10 22:13:54;;;;;;;6.70;4.20;;;1.60;99.90;;;;;;10366761;28;87182;-45
2021/12/10 22:19:08;;;;;;;10.25;4.50;;;1.50;99.90;;;;;;10354265;28;84039;-47
2021/12/10 22:24:15;;;;;;;6.10;4.53;;;1.50;99.90;;;;;;10366834;28;84167;-46
2021/12/10 22:29:23;;;;;;;7.13;4.38;;;1.50;99.90;;;;;;10368020;28;84925;-48
2021/12/10 22:34:43;;;;;;;9.32;4.65;;;1.50;99.90;;;;;;10367830;28;83996;-45
2021/12/10 22:39:52;;;;;;;10.75;4.57;;;1.50;99.90;;;;;;10368392;28;84861;-45
2021/12/10 22:45:07;;;;;;;4.97;3.58;;;1.50;99.90;;;;;;10377728;28;84314;-45
2021/12/10 22:50:31;;;;;;;8.13;4.13;;;1.50;99.90;;;;;;10380725;28;84939;-46
2021/12/10 22:55:40;;;;;;;7.85;4.38;;;1.50;99.90;;;;;;10378854;28;85454;-49
2021/12/10 23:00:44;;;;;;;8.02;4.22;;;1.40;99.90;;;;;;10379717;28;85171;-45
2021/12/10 23:05:50;;;;;;;9.10;4.10;;;1.40;99.90;;;;;;10379388;28;84039;-47
2021/12/10 23:10:51;;;;;;;7.03;3.88;;;1.40;99.90;;;;;;10380444;28;84223;-48
2021/12/10 23:15:54;;;;;;;5.93;3.92;;;1.40;99.90;;;;;;10379652;28;84065;-45
2021/12/10 23:21:10;;;;;;;8.38;4.32;;;1.30;99.90;;;;;;10380361;28;85194;-46
2021/12/10 23:26:11;;;;;;;6.80;4.35;;;1.30;99.90;;;;;;10377812;28;86223;-45
2021/12/10 23:31:16;;;;;;;10.02;4.05;;;1.30;99.90;;;;;;10379826;28;84896;-48
2021/12/10 23:36:21;;;;;;;8.60;4.03;;;1.20;99.90;;;;;;10379226;28;84104;-43
2021/12/10 23:41:46;;;;;;;6.38;3.72;;;1.20;99.90;;;;;;10377879;28;86289;-46
2021/12/10 23:46:49;;;;;;;7.90;4.53;;;1.20;99.90;;;;;;10379303;28;83968;-45
2021/12/10 23:52:04;;;;;;;9.75;4.55;;;1.20;99.90;;;;;;10378925;28;84679;-44
2021/12/10 23:57:11;;;;;;;10.38;4.20;;;1.20;99.90;;;;;;10372476;28;84939;-47
